Weather reports worldwide

Advertisment
Torino Venaria, Italy (16060): temperature & dewpoint: 03.07.2020 04:00:00 - 09.07.2020 04:00:00 (CEST)Torino Venaria, Italy (16060): wind speed: 03.07.2020 04:00:00 - 09.07.2020 04:00:00 (CEST)Torino Venaria, Italy (16060): wind direction: 03.07.2020 04:00:00 - 09.07.2020 04:00:00 (CEST)Torino Venaria, Italy (16060): reduced air pressure: 03.07.2020 04:00:00 - 09.07.2020 04:00:00 (CEST)Torino Venaria, Italy (16060): precipitation: 03.07.2020 04:00:00 - 09.07.2020 04:00:00 (CEST)
Date & Time tt [°C] td [°C] ff [km/h] ff [kn] dd ppp [hPa] rr [mm]
09.07.2020 04:00:00 - - - - - - -
09.07.2020 03:00:00 14,7 14,3 4 2 NW 1015,6 -
09.07.2020 02:00:00 14,1 12,6 4 2 WNW 1015,7 0,0
09.07.2020 01:00:00 16,1 14,0 5 3 WNW 1015,4 -
09.07.2020 00:00:00 16,5 14,1 5 3 WNW 1015,0 -
08.07.2020 23:00:00 17,9 14,3 5 3 WNW 1014,7 -
08.07.2020 22:00:00 20,2 13,8 4 2 WNW 1013,8 -
08.07.2020 21:00:00 22,1 13,9 8 4 SW 1013,4 -
08.07.2020 20:00:00 25,0 14,1 9 5 WSW 1012,8 0,0
08.07.2020 19:00:00 25,7 13,1 8 4 SSW 1012,7 -
08.07.2020 18:00:00 26,3 13,0 5 3 WSW 1013,0 -
08.07.2020 17:00:00 26,3 13,0 8 4 S 1013,5 -
08.07.2020 16:00:00 26,0 12,8 5 3 WSW 1014,0 -
08.07.2020 15:00:00 25,8 12,6 11 6 SSW 1014,3 -
08.07.2020 14:00:00 25,5 13,3 11 6 SSW 1014,5 0,0
08.07.2020 13:00:00 24,1 11,1 8 4 NE 1015,2 -
08.07.2020 12:00:00 24,0 12,6 8 4 NNE 1015,3 -
08.07.2020 11:00:00 22,1 12,0 5 3 NE 1015,7 -
08.07.2020 10:00:00 20,2 14,0 5 3 NNE 1015,9 -
08.07.2020 09:00:00 19,5 14,2 5 3 NE 1016,1 -
08.07.2020 08:00:00 19,0 15,0 4 2 NE 1015,6 0,0
08.07.2020 07:00:00 18,3 16,9 2 1 N 1015,5 -
08.07.2020 06:00:00 18,4 16,5 2 1 N 1015,3 -
08.07.2020 05:00:00 19,1 16,3 4 2 NE 1015,0 -
08.07.2020 04:00:00 18,3 18,2 2 1 NE 1015,4 -
08.07.2020 03:00:00 18,3 18,2 0 0 N 1015,6 -
08.07.2020 02:00:00 17,8 17,7 2 1 NW 1015,5 0,0
08.07.2020 01:00:00 17,3 17,2 0 0 N 1015,4 -
08.07.2020 00:00:00 16,4 14,9 5 3 WNW 1015,3 -
07.07.2020 23:00:00 17,8 14,4 4 2 NW 1014,6 -
07.07.2020 22:00:00 20,1 14,6 4 2 NNE 1013,6 -
07.07.2020 21:00:00 21,6 14,4 2 1 NNW 1012,9 -
07.07.2020 20:00:00 22,6 14,1 8 4 NNE 1012,5 0,0
07.07.2020 19:00:00 23,4 14,6 9 5 NNE 1012,4 -
07.07.2020 18:00:00 23,7 14,3 13 7 NNE 1012,5 -
07.07.2020 17:00:00 23,8 15,2 8 4 ENE 1012,9 -
07.07.2020 16:00:00 23,4 14,0 8 4 NE 1013,3 -
07.07.2020 15:00:00 23,2 14,1 8 4 ENE 1013,4 -
07.07.2020 14:00:00 22,5 13,2 13 7 ENE 1013,9 0,0
07.07.2020 13:00:00 23,0 15,0 15 8 ENE 1014,0 -
07.07.2020 12:00:00 22,8 15,1 15 8 E 1014,0 -
07.07.2020 11:00:00 22,5 13,7 21 11 ENE 1013,7 -
07.07.2020 10:00:00 22,6 9,7 5 3 NE 1013,0 -
07.07.2020 09:00:00 20,3 15,2 2 1 NNW 1012,5 -
07.07.2020 08:00:00 17,3 16,4 0 0 N 1011,8 0,0
07.07.2020 07:00:00 12,9 11,9 2 1 NNW 1011,0 -
07.07.2020 06:00:00 12,1 9,6 2 1 NNE 1010,0 -
07.07.2020 05:00:00 12,8 9,2 8 4 W 1008,8 -
07.07.2020 04:00:00 12,9 8,9 4 2 W 1008,2 -
07.07.2020 03:00:00 15,1 10,0 5 3 WNW 1007,5 -
07.07.2020 02:00:00 18,6 10,6 9 5 ESE 1006,5 0,0
07.07.2020 01:00:00 16,7 13,7 0 0 N 1006,3 -
07.07.2020 00:00:00 19,1 16,1 0 0 N 1006,0 -
06.07.2020 23:00:00 21,4 16,1 0 0 N 1005,4 -
06.07.2020 22:00:00 24,9 20,3 5 3 NNE 1004,2 -
06.07.2020 21:00:00 27,7 19,7 5 3 NNE 1003,4 -
06.07.2020 20:00:00 29,4 19,4 4 2 ENE 1003,2 0,0
06.07.2020 19:00:00 29,7 19,1 5 3 E 1003,3 -
06.07.2020 18:00:00 30,0 19,6 8 4 ESE 1003,6 -
06.07.2020 17:00:00 30,3 19,3 5 3 SW 1004,0 -
06.07.2020 16:00:00 30,1 18,8 4 2 W 1004,4 -
06.07.2020 15:00:00 29,9 20,1 4 2 WSW 1005,1 -
06.07.2020 14:00:00 28,9 20,6 8 4 S 1006,0 0,0
06.07.2020 13:00:00 28,4 19,6 5 3 SE 1006,8 -
06.07.2020 12:00:00 27,5 20,5 5 3 WNW 1007,6 -
06.07.2020 11:00:00 26,1 19,4 4 2 E 1008,0 -
06.07.2020 10:00:00 24,5 19,9 4 2 NNE 1008,8 -
06.07.2020 09:00:00 21,7 21,3 0 0 N 1009,4 -
06.07.2020 08:00:00 19,0 18,9 2 1 WNW 1009,7 0,0
06.07.2020 07:00:00 16,9 16,8 4 2 NW 1010,4 -
06.07.2020 06:00:00 15,8 15,7 2 1 W 1010,7 -
06.07.2020 05:00:00 17,2 17,1 4 2 NW 1010,9 -
06.07.2020 04:00:00 17,4 17,3 2 1 NW 1011,3 -
06.07.2020 03:00:00 18,1 18,0 5 3 NW 1011,7 -
06.07.2020 02:00:00 17,7 17,3 4 2 NW 1011,9 0,0
06.07.2020 01:00:00 18,2 17,2 4 2 WNW 1012,0 -
06.07.2020 00:00:00 19,5 17,6 4 2 WNW 1011,9 -
05.07.2020 23:00:00 21,0 17,7 5 3 WNW 1011,9 -
05.07.2020 22:00:00 24,0 17,4 5 3 NW 1011,4 -
05.07.2020 21:00:00 25,1 17,5 5 3 SSW 1010,9 -
05.07.2020 20:00:00 27,7 17,8 4 2 SSW 1010,7 0,0
05.07.2020 19:00:00 28,9 18,0 5 3 W 1010,7 -
05.07.2020 18:00:00 28,9 17,1 8 4 WSW 1011,1 -
05.07.2020 17:00:00 29,1 17,3 8 4 WSW 1011,7 -
05.07.2020 16:00:00 28,9 18,0 9 5 W 1012,2 -
05.07.2020 15:00:00 28,4 18,7 5 3 W 1013,0 -
05.07.2020 14:00:00 27,9 19,4 8 4 NW 1013,7 0,0
05.07.2020 13:00:00 27,2 18,4 5 3 WNW 1014,2 -
05.07.2020 12:00:00 25,6 17,2 4 2 WNW 1014,6 -
05.07.2020 11:00:00 24,2 17,8 4 2 E 1014,8 -
05.07.2020 10:00:00 22,7 18,2 5 3 E 1015,1 -
05.07.2020 09:00:00 20,0 19,5 4 2 WNW 1015,2 -
05.07.2020 08:00:00 17,1 17,0 2 1 WNW 1015,3 0,0
05.07.2020 07:00:00 14,2 14,1 4 2 WNW 1015,8 -
05.07.2020 06:00:00 14,1 14,0 4 2 NW 1015,7 -
05.07.2020 05:00:00 14,1 14,0 4 2 NW 1015,4 -
05.07.2020 04:00:00 14,2 14,1 2 1 WNW 1015,3 -
05.07.2020 03:00:00 15,0 14,9 5 3 WNW 1015,3 -
05.07.2020 02:00:00 15,8 15,6 4 2 WNW 1015,5 0,0
05.07.2020 01:00:00 16,0 15,5 2 1 W 1015,2 -
05.07.2020 00:00:00 17,8 16,1 4 2 NNW 1015,0 -
04.07.2020 23:00:00 17,9 14,5 5 3 WNW 1015,1 -
04.07.2020 22:00:00 21,3 15,1 4 2 NW 1014,3 -
04.07.2020 21:00:00 23,2 14,9 5 3 SW 1013,4 -
04.07.2020 20:00:00 25,6 15,2 5 3 SW 1012,8 0,0
04.07.2020 19:00:00 26,8 14,8 5 3 W 1012,8 -
04.07.2020 18:00:00 26,5 15,5 8 4 SSW 1013,1 -
04.07.2020 17:00:00 26,6 15,9 9 5 WSW 1013,4 -
04.07.2020 16:00:00 26,7 17,1 5 3 SSW 1014,1 -
04.07.2020 15:00:00 26,1 16,8 8 4 SW 1014,6 -
04.07.2020 14:00:00 25,3 15,3 5 3 ESE 1015,2 0,0
04.07.2020 13:00:00 24,6 13,7 8 4 E 1015,8 -
04.07.2020 12:00:00 23,5 13,6 8 4 SSW 1015,9 -
04.07.2020 11:00:00 21,7 15,2 2 1 SSW 1016,0 -
04.07.2020 10:00:00 19,5 17,6 4 2 WSW 1016,5 -
04.07.2020 09:00:00 17,0 16,9 2 1 W 1016,8 -
04.07.2020 08:00:00 14,6 14,5 2 1 WSW 1017,3 -
04.07.2020 07:00:00 12,3 12,3 4 2 W 1017,4 -
04.07.2020 06:00:00 13,2 13,1 2 1 ESE 1016,7 -
04.07.2020 05:00:00 12,2 12,2 4 2 S 1016,4 -
04.07.2020 04:00:00 13,5 13,4 2 1 NW 1016,4 -
04.07.2020 03:00:00 14,4 14,3 4 2 NW 1016,4 -
04.07.2020 02:00:00 14,8 14,7 13 7 S 1015,7 -
04.07.2020 01:00:00 14,7 14,6 11 6 SSW 1014,8 -
04.07.2020 00:00:00 14,9 14,8 9 5 S 1015,6 -
03.07.2020 23:00:00 14,6 14,5 4 2 NNE 1015,8 -
03.07.2020 22:00:00 14,6 14,5 15 8 W 1016,3 -
03.07.2020 21:00:00 15,1 14,4 16 9 SW 1015,2 -
03.07.2020 20:00:00 18,1 13,9 18 10 S 1011,9 -
03.07.2020 19:00:00 19,1 15,1 4 2 SSE 1009,7 -
03.07.2020 18:00:00 19,2 16,5 5 3 SSW 1008,9 -
03.07.2020 17:00:00 19,9 16,7 9 5 WNW 1009,0 -
03.07.2020 16:00:00 22,9 15,6 8 4 NW 1009,5 -
03.07.2020 15:00:00 25,2 14,9 8 4 E 1008,8 -
03.07.2020 14:00:00 26,3 15,6 8 4 E 1009,1 0,0
03.07.2020 13:00:00 25,3 15,8 8 4 ESE 1009,5 -
03.07.2020 12:00:00 24,6 15,7 8 4 SE 1009,6 -
03.07.2020 11:00:00 23,5 18,5 4 2 SW 1009,6 -
03.07.2020 10:00:00 21,9 18,0 4 2 ENE 1010,0 -
03.07.2020 09:00:00 19,6 18,2 4 2 WNW 1010,2 -
03.07.2020 08:00:00 16,6 16,5 2 1 W 1010,4 0,0
03.07.2020 07:00:00 13,6 13,5 2 1 SW 1010,3 -
03.07.2020 06:00:00 12,6 12,6 2 1 NNW 1009,9 -
03.07.2020 05:00:00 13,2 13,1 0 0 N 1009,4 -
03.07.2020 04:00:00 13,2 12,4 2 1 NW 1009,2 -

tt = temperature
td = dewpoint
ff = wind speed
dd = wind direction
ppp = reduced air pressure
rr = precipitation

Next stations